Airfield :
LOGIN :

Register | Disclaimer

   EN    FR    IT 

 










Legend :    VFR   Marginal VFR   IFR   Intensive IFR   Very Intensive IFR
Visi :
Ceiling :
>= 8 km
>= 3000ft
5 to 8 km
1000 to 3000 ft
1500m to 5 km
500 to 1000 ft
800 to 1500m
200 to 500 ft
< 800m
< 200 ft
Symbols :   Thunderstorms  Fog  Heavy snow  Heavy precipitations  Wind > 20 kt
SIGMETs :     Misc.  Thunderstorms  Icing  Turbulence  Mountain Waves  Volcanic Ashes







- Airport Elevation : 84 ft
- Download approach charts


LFBC - Cazaux

CURRENT METAR :
  • 231100Z AUTO 04008KT 360V080 CAVOK 24/07 Q1022

EXPIRED METARs :
  • 231030Z AUTO 06009KT 360V110 CAVOK 24/07 Q1022
  • 231000Z AUTO 06009KT 020V090 CAVOK 23/08 Q1022
  • 230930Z AUTO 06008KT 010V100 CAVOK 22/09 Q1022
  • 230900Z AUTO 07011KT CAVOK 21/08 Q1022
  • 230830Z AUTO 05010KT CAVOK 21/08 Q1022

TAF TAF LFBC
Valid from the 23 at 09:00 until the 24 at 09:00 UTC


230800Z 2309/2409 04012KT CAVOK
TEMPO 2406/2409 33012G22KT
No reported NOTAMs for that airfield.



MET'MAP, your aeronautical weather chart ! - Copyright ORBIFLY December 2007 - Disclaimer

ORBIFLY MET'MAP TEAM :

Programming & Development : Alexandra Zaïnal
Concept & Development : Baudouin d'Aumeries
Co-Development & Prog : Marc-Olivier Méhu
Technical & hardware support : Manuel Goepfert

Contact : metmap@orbifly.com




SOURCES & CREDITS :

   NOAA